createdAt,value
2022-07-30T00:00:02.299Z,97.60
2022-07-30T00:01:02.329Z,98.00
2022-07-30T00:02:02.293Z,97.49
2022-07-30T00:03:02.275Z,97.60
2022-07-30T00:04:02.938Z,97.29
2022-07-30T00:05:02.296Z,97.29
2022-07-30T00:06:02.254Z,97.80
2022-07-30T00:07:02.912Z,97.60
2022-07-30T00:08:02.236Z,97.29
2022-07-30T00:09:02.229Z,97.49
2022-07-30T00:10:02.220Z,97.90
2022-07-30T00:11:02.209Z,97.29
2022-07-30T00:12:02.214Z,97.39
2022-07-30T00:13:02.197Z,97.74
2022-07-30T00:14:02.207Z,98.35
2022-07-30T00:15:02.183Z,98.25
2022-07-30T00:16:02.171Z,97.94
2022-07-30T00:17:02.559Z,97.74
2022-07-30T00:18:02.169Z,97.74
2022-07-30T00:19:02.146Z,97.74
2022-07-30T00:20:02.937Z,97.85
2022-07-30T00:21:02.136Z,97.85
2022-07-30T00:22:02.125Z,98.25
2022-07-30T00:23:02.126Z,98.25
2022-07-30T00:24:02.479Z,98.45
2022-07-30T00:25:02.112Z,98.39
2022-07-30T00:26:02.087Z,98.35
2022-07-30T00:27:02.527Z,98.70
2022-07-30T00:28:02.082Z,98.35
2022-07-30T00:29:02.063Z,98.05
2022-07-30T00:30:02.061Z,98.05
2022-07-30T00:31:02.114Z,97.85
2022-07-30T00:33:02.076Z,97.85
2022-07-30T00:34:02.065Z,97.74
2022-07-30T00:35:02.075Z,97.54
2022-07-30T00:36:03.143Z,98.25
2022-07-30T00:37:03.592Z,97.99
2022-07-30T00:38:03.133Z,99.01
2022-07-30T00:39:03.119Z,99.36
2022-07-30T00:40:03.106Z,99.71
2022-07-30T00:41:03.097Z,99.91
2022-07-30T00:42:03.093Z,99.71
2022-07-30T00:43:03.081Z,99.71
2022-07-30T00:44:03.078Z,99.51
2022-07-30T00:45:03.067Z,99.61
2022-07-30T00:46:03.122Z,99.99
2022-07-30T00:47:03.617Z,99.01
2022-07-30T00:48:03.037Z,99.01
2022-07-30T00:49:03.079Z,99.10
2022-07-30T00:50:04.019Z,99.01
2022-07-30T00:51:03.020Z,98.50
2022-07-30T00:52:03.023Z,98.50
2022-07-30T00:53:03.009Z,98.80
2022-07-30T00:54:03.513Z,98.60
2022-07-30T00:55:02.997Z,97.99
2022-07-30T00:56:03.032Z,98.75
2022-07-30T00:57:03.383Z,98.70
2022-07-30T00:58:02.966Z,98.70
2022-07-30T00:59:02.978Z,98.60
2022-07-30T01:00:02.948Z,98.19
2022-07-30T01:01:02.994Z,98.60
2022-07-30T01:02:02.957Z,98.96
2022-07-30T01:03:02.921Z,98.80
2022-07-30T01:04:02.915Z,99.21
2022-07-30T01:05:02.903Z,98.96
2022-07-30T01:06:02.906Z,99.05
2022-07-30T01:07:03.222Z,98.55
2022-07-30T01:08:02.879Z,98.45
2022-07-30T01:09:02.877Z,98.65
2022-07-30T01:10:02.873Z,98.35
2022-07-30T01:11:02.864Z,98.45
2022-07-30T01:12:02.850Z,98.35
2022-07-30T01:13:02.847Z,98.35
2022-07-30T01:14:02.837Z,97.89
2022-07-30T01:15:02.832Z,98.39
2022-07-30T01:16:02.860Z,97.69
2022-07-30T01:17:03.188Z,97.69
2022-07-30T01:18:02.804Z,98.60
2022-07-30T01:19:02.792Z,98.09
2022-07-30T01:20:02.783Z,98.50
2022-07-30T01:21:02.771Z,97.99
2022-07-30T01:22:02.767Z,98.54
2022-07-30T01:23:02.773Z,98.50
2022-07-30T01:24:02.753Z,98.39
2022-07-30T01:25:02.746Z,98.54
2022-07-30T01:26:02.739Z,98.85
2022-07-30T01:27:03.095Z,98.85
2022-07-30T01:28:02.772Z,98.95
2022-07-30T01:29:02.715Z,98.74
2022-07-30T01:30:02.712Z,99.15
2022-07-30T01:31:02.701Z,99.25
2022-07-30T01:32:02.750Z,99.05
2022-07-30T01:33:02.683Z,98.65
2022-07-30T01:34:02.672Z,98.54
2022-07-30T01:35:02.667Z,98.85
2022-07-30T01:36:02.660Z,98.65
2022-07-30T01:37:02.999Z,99.15
2022-07-30T01:38:02.643Z,99.25
2022-07-30T01:39:02.635Z,98.95
2022-07-30T01:40:02.627Z,98.74
2022-07-30T01:41:02.622Z,98.74
2022-07-30T01:42:02.610Z,99.35
2022-07-30T01:43:02.671Z,99.15
2022-07-30T01:44:02.600Z,99.15
2022-07-30T01:45:03.528Z,98.85
2022-07-30T01:46:02.627Z,98.34
2022-07-30T01:47:03.087Z,98.39
2022-07-30T01:48:02.559Z,98.59
2022-07-30T01:49:02.605Z,98.99
2022-07-30T01:50:02.542Z,98.39
2022-07-30T01:51:02.541Z,98.79
2022-07-30T01:52:02.524Z,98.99
2022-07-30T01:53:02.515Z,98.69
2022-07-30T01:54:02.513Z,99.19
2022-07-30T01:55:02.505Z,99.10
2022-07-30T01:56:02.502Z,98.99
2022-07-30T01:57:02.984Z,99.30
2022-07-30T01:58:02.477Z,98.99
2022-07-30T01:59:02.477Z,99.10
2022-07-30T02:00:02.470Z,99.91
2022-07-30T02:01:02.502Z,99.91
2022-07-30T02:02:02.455Z,99.91
2022-07-30T02:03:02.441Z,99.70
2022-07-30T02:04:02.517Z,99.91
2022-07-30T02:05:02.468Z,99.99
2022-07-30T02:06:02.425Z,99.99
2022-07-30T02:07:02.789Z,99.40
2022-07-30T02:08:02.408Z,99.99
2022-07-30T02:09:02.397Z,99.99
2022-07-30T02:10:03.418Z,99.99
2022-07-30T02:11:02.378Z,99.99
2022-07-30T02:12:02.375Z,99.99
2022-07-30T02:13:02.358Z,99.99
2022-07-30T02:14:02.356Z,99.99
2022-07-30T02:15:02.340Z,99.99
2022-07-30T02:16:02.390Z,99.99
2022-07-30T02:17:02.877Z,99.99
2022-07-30T02:18:02.327Z,99.76
2022-07-30T02:19:02.315Z,99.99
2022-07-30T02:20:04.759Z,99.99
2022-07-30T02:21:07.544Z,99.99
2022-07-30T02:22:03.287Z,99.99
2022-07-30T02:23:02.286Z,99.96
2022-07-30T02:24:03.273Z,99.96
2022-07-30T02:25:02.268Z,99.96
2022-07-30T02:26:02.252Z,99.99
2022-07-30T02:27:02.627Z,99.76
2022-07-30T02:28:02.246Z,99.66
2022-07-30T02:29:02.234Z,99.55
2022-07-30T02:30:02.220Z,99.76
2022-07-30T02:31:02.289Z,99.66
2022-07-30T02:32:03.971Z,99.86
2022-07-30T02:33:02.202Z,99.96
2022-07-30T02:34:02.195Z,99.21
2022-07-30T02:35:02.182Z,98.60
2022-07-30T02:36:02.173Z,98.85
2022-07-30T02:37:02.731Z,98.50
2022-07-30T02:38:02.162Z,98.70
2022-07-30T02:39:02.152Z,98.19
2022-07-30T02:40:02.140Z,97.79
2022-07-30T02:41:02.153Z,97.83
2022-07-30T02:42:02.111Z,97.43
2022-07-30T02:43:03.120Z,97.43
2022-07-30T02:44:02.115Z,97.43
2022-07-30T02:45:02.099Z,97.83
2022-07-30T02:46:02.090Z,97.33
2022-07-30T02:47:04.686Z,97.94
2022-07-30T02:48:02.075Z,97.78
2022-07-30T02:49:02.104Z,97.63
2022-07-30T02:50:02.972Z,97.67
2022-07-30T02:51:02.051Z,97.98
2022-07-30T02:52:02.064Z,97.98
2022-07-30T02:53:02.041Z,97.58
2022-07-30T02:54:02.029Z,97.88
2022-07-30T02:55:02.014Z,98.08
2022-07-30T02:56:02.012Z,98.28
2022-07-30T02:57:02.348Z,98.18
2022-07-30T02:58:01.991Z,97.98
2022-07-30T02:59:01.982Z,97.67
2022-07-30T03:00:01.975Z,98.08
2022-07-30T03:01:03.241Z,98.18
2022-07-30T03:02:01.997Z,98.28
2022-07-30T03:03:02.012Z,98.18
2022-07-30T03:04:01.943Z,98.34
2022-07-30T03:05:01.933Z,97.94
2022-07-30T03:06:01.928Z,98.24
2022-07-30T03:07:07.918Z,97.83
2022-07-30T03:08:03.909Z,97.53
2022-07-30T03:09:01.898Z,97.43
2022-07-30T03:10:01.888Z,97.53
2022-07-30T03:11:01.904Z,97.43
2022-07-30T03:12:01.873Z,96.88
2022-07-30T03:13:01.870Z,97.23
2022-07-30T03:14:01.856Z,96.88
2022-07-30T03:15:01.850Z,96.78
2022-07-30T03:16:01.899Z,96.27
2022-07-30T03:17:02.318Z,96.07
2022-07-30T03:18:01.824Z,95.15
2022-07-30T03:19:01.830Z,95.76
2022-07-30T03:20:01.809Z,95.56
2022-07-30T03:21:01.801Z,95.15
2022-07-30T03:22:01.796Z,94.75
2022-07-30T03:23:01.786Z,94.65
2022-07-30T03:24:01.774Z,95.10
2022-07-30T03:25:01.766Z,95.61
2022-07-30T03:26:01.759Z,96.22
2022-07-30T03:27:02.232Z,95.97
2022-07-30T03:28:01.749Z,96.17
2022-07-30T03:29:01.737Z,96.27
2022-07-30T03:30:02.598Z,96.27
2022-07-30T03:31:01.795Z,96.27
2022-07-30T03:32:01.726Z,96.27
2022-07-30T03:33:01.712Z,96.17
2022-07-30T03:34:01.699Z,95.15
2022-07-30T03:35:06.165Z,95.46
2022-07-30T03:36:03.679Z,95.36
2022-07-30T03:37:01.989Z,94.75
2022-07-30T03:38:01.718Z,94.85
2022-07-30T03:39:01.655Z,94.95
2022-07-30T03:40:02.565Z,95.36
2022-07-30T03:41:01.645Z,95.15
2022-07-30T03:42:01.660Z,94.75
2022-07-30T03:43:01.630Z,95.06
2022-07-30T03:44:01.620Z,95.40
2022-07-30T03:45:01.611Z,95.15
2022-07-30T03:46:01.824Z,94.95
2022-07-30T03:47:01.832Z,95.26
2022-07-30T03:48:01.594Z,95.30
2022-07-30T03:49:01.641Z,95.50
2022-07-30T03:50:01.581Z,95.36
2022-07-30T03:51:01.561Z,95.36
2022-07-30T03:52:01.555Z,95.26
2022-07-30T03:53:01.545Z,95.15
2022-07-30T03:54:01.547Z,95.81
2022-07-30T03:55:01.531Z,95.91
2022-07-30T03:56:01.523Z,95.81
2022-07-30T03:57:01.991Z,96.01
2022-07-30T03:58:01.502Z,96.42
2022-07-30T03:59:01.501Z,96.01
2022-07-30T04:00:01.488Z,96.72
2022-07-30T04:01:01.485Z,96.72
2022-07-30T04:02:06.787Z,96.92
2022-07-30T04:03:02.466Z,96.92
2022-07-30T04:04:01.529Z,95.91
2022-07-30T04:05:01.455Z,96.72
2022-07-30T04:06:01.438Z,96.72
2022-07-30T04:07:01.912Z,97.13
2022-07-30T04:08:01.424Z,97.08
2022-07-30T04:09:01.413Z,97.13
2022-07-30T04:10:01.413Z,97.02
2022-07-30T04:11:01.405Z,96.31
2022-07-30T04:12:01.393Z,96.22
2022-07-30T04:13:01.389Z,96.31
2022-07-30T04:14:01.378Z,96.42
2022-07-30T04:15:01.366Z,96.22
2022-07-30T04:16:37.388Z,96.22
2022-07-30T04:17:02.904Z,96.22
2022-07-30T04:18:01.347Z,96.07
2022-07-30T04:19:01.338Z,96.42
2022-07-30T04:20:01.330Z,96.22
2022-07-30T04:21:01.327Z,96.07
2022-07-30T04:22:01.311Z,95.91
2022-07-30T04:23:01.308Z,95.50
2022-07-30T04:24:04.336Z,96.01
2022-07-30T04:25:01.342Z,96.01
2022-07-30T04:26:01.286Z,96.11
2022-07-30T04:27:01.711Z,96.01
2022-07-30T04:28:03.524Z,96.22
2022-07-30T04:29:01.260Z,95.97
2022-07-30T04:30:01.264Z,96.01
2022-07-30T04:31:01.297Z,96.27
2022-07-30T04:32:01.233Z,95.86
2022-07-30T04:33:01.258Z,96.62
2022-07-30T04:34:04.454Z,96.27
2022-07-30T04:35:01.212Z,96.02
2022-07-30T04:36:01.218Z,95.97
2022-07-30T04:37:01.463Z,95.97
2022-07-30T04:38:01.186Z,96.17
2022-07-30T04:39:01.180Z,96.37
2022-07-30T04:40:01.171Z,96.27
2022-07-30T04:41:01.163Z,96.22
2022-07-30T04:42:01.165Z,95.97
2022-07-30T04:43:01.162Z,96.88
2022-07-30T04:44:01.141Z,97.13
2022-07-30T04:45:01.131Z,97.33
2022-07-30T04:46:01.138Z,96.98
2022-07-30T04:47:01.481Z,97.02
2022-07-30T04:48:01.113Z,97.02
2022-07-30T04:49:01.140Z,97.38
2022-07-30T04:50:01.092Z,97.33
2022-07-30T04:51:01.110Z,96.92
2022-07-30T04:52:01.083Z,97.43
2022-07-30T04:53:01.068Z,97.53
2022-07-30T04:54:01.065Z,97.18
2022-07-30T04:55:01.053Z,96.67
2022-07-30T04:56:01.060Z,97.02
2022-07-30T04:57:01.059Z,97.13
2022-07-30T04:58:02.125Z,97.02
2022-07-30T04:59:01.019Z,97.08
2022-07-30T05:00:01.014Z,96.98
2022-07-30T05:01:01.020Z,96.92
2022-07-30T05:02:01.049Z,96.82
2022-07-30T05:03:00.987Z,95.91
2022-07-30T05:04:00.979Z,96.62
2022-07-30T05:05:01.022Z,97.13
2022-07-30T05:06:00.975Z,96.31
2022-07-30T05:07:01.090Z,96.42
2022-07-30T05:08:00.947Z,96.72
2022-07-30T05:09:00.952Z,97.27
2022-07-30T05:10:00.936Z,97.13
2022-07-30T05:11:00.935Z,97.43
2022-07-30T05:12:01.046Z,97.33
2022-07-30T05:13:00.914Z,96.82
2022-07-30T05:14:00.906Z,97.23
2022-07-30T05:15:00.908Z,96.92
2022-07-30T05:16:00.935Z,97.02
2022-07-30T05:17:01.094Z,97.23
2022-07-30T05:18:00.872Z,96.78
2022-07-30T05:19:00.857Z,96.92
2022-07-30T05:20:02.041Z,95.97
2022-07-30T05:21:00.849Z,96.07
2022-07-30T05:22:06.127Z,95.46
2022-07-30T05:23:02.837Z,95.76
2022-07-30T05:24:00.830Z,95.36
2022-07-30T05:25:00.815Z,95.42
2022-07-30T05:26:00.813Z,94.81
2022-07-30T05:27:01.075Z,94.81
2022-07-30T05:28:00.800Z,94.81
2022-07-30T05:29:00.788Z,94.81
2022-07-30T05:30:00.779Z,94.91
2022-07-30T05:31:00.815Z,94.60
2022-07-30T05:32:03.495Z,95.31
2022-07-30T05:33:01.349Z,94.50
2022-07-30T05:34:03.381Z,94.81
2022-07-30T05:35:01.739Z,94.06
2022-07-30T05:36:00.727Z,93.44
2022-07-30T05:37:00.925Z,93.24
2022-07-30T05:38:00.707Z,93.15
2022-07-30T05:39:00.708Z,92.64
2022-07-30T05:40:03.342Z,93.44
2022-07-30T05:41:00.685Z,92.40
2022-07-30T05:42:00.677Z,92.03
2022-07-30T05:43:00.687Z,91.49
2022-07-30T05:44:00.693Z,91.89
2022-07-30T05:45:00.653Z,91.78
2022-07-30T05:46:00.717Z,91.58
2022-07-30T05:47:00.888Z,91.49
2022-07-30T05:48:00.634Z,91.69
2022-07-30T05:49:00.671Z,91.69
2022-07-30T05:50:04.841Z,91.58
2022-07-30T05:51:01.607Z,91.78
2022-07-30T05:52:00.600Z,91.85
2022-07-30T05:53:00.584Z,91.03
2022-07-30T05:54:00.580Z,91.03
2022-07-30T05:55:00.568Z,90.94
2022-07-30T05:56:00.618Z,90.94
2022-07-30T05:57:00.825Z,90.83
2022-07-30T05:58:00.556Z,90.53
2022-07-30T05:59:00.540Z,90.28
2022-07-30T06:00:00.531Z,90.19
2022-07-30T06:01:00.530Z,90.39
2022-07-30T06:02:00.590Z,90.63
2022-07-30T06:03:00.509Z,91.03
2022-07-30T06:04:00.535Z,90.94
2022-07-30T06:05:00.590Z,90.63
2022-07-30T06:06:00.490Z,90.12
2022-07-30T06:07:00.835Z,90.39
2022-07-30T06:08:00.474Z,90.23
2022-07-30T06:09:00.475Z,89.78
2022-07-30T06:10:00.503Z,89.58
2022-07-30T06:11:00.443Z,89.17
2022-07-30T06:12:00.436Z,89.68
2022-07-30T06:13:00.433Z,89.28
2022-07-30T06:14:00.420Z,89.48
2022-07-30T06:15:00.410Z,88.87
2022-07-30T06:16:00.459Z,89.37
2022-07-30T06:17:00.754Z,89.37
2022-07-30T06:18:02.275Z,89.54
2022-07-30T06:19:00.386Z,89.13
2022-07-30T06:20:00.374Z,88.68
2022-07-30T06:21:00.367Z,88.59
2022-07-30T06:22:05.708Z,88.68
2022-07-30T06:23:01.349Z,87.94
2022-07-30T06:24:00.344Z,87.98
2022-07-30T06:25:00.334Z,87.38
2022-07-30T06:26:00.325Z,87.03
2022-07-30T06:27:00.662Z,86.93
2022-07-30T06:28:15.408Z,86.53
2022-07-30T06:29:02.302Z,86.22
2022-07-30T06:30:00.302Z,86.69
2022-07-30T06:31:00.383Z,85.68
2022-07-30T06:32:00.277Z,85.58
2022-07-30T06:33:00.279Z,85.88
2022-07-30T06:34:00.257Z,85.34
2022-07-30T06:35:04.518Z,84.63
2022-07-30T06:36:01.245Z,84.53
2022-07-30T06:37:00.489Z,84.49
2022-07-30T06:38:07.233Z,84.19
2022-07-30T06:39:01.226Z,84.15
2022-07-30T06:40:00.210Z,82.90
2022-07-30T06:41:02.576Z,82.30
2022-07-30T06:42:01.197Z,81.76
2022-07-30T06:43:00.204Z,81.35
2022-07-30T06:44:00.188Z,80.61
2022-07-30T06:45:00.169Z,80.01
2022-07-30T06:46:00.278Z,80.07
2022-07-30T06:47:05.280Z,79.87
2022-07-30T06:48:02.141Z,79.37
2022-07-30T06:49:00.207Z,79.23
2022-07-30T06:50:00.159Z,78.93
2022-07-30T06:51:00.139Z,77.69
2022-07-30T06:52:00.133Z,77.25
2022-07-30T06:53:00.106Z,77.69
2022-07-30T06:54:00.110Z,77.05
2022-07-30T06:55:00.095Z,77.01
2022-07-30T06:56:00.612Z,76.07
2022-07-30T06:57:00.492Z,75.67
2022-07-30T06:58:00.069Z,76.21
2022-07-30T06:59:00.070Z,76.11
2022-07-30T07:00:00.062Z,75.27
2022-07-30T07:01:00.177Z,75.47
2022-07-30T07:02:00.032Z,75.07
2022-07-30T07:03:00.027Z,75.01
2022-07-30T07:04:00.051Z,75.37
2022-07-30T07:05:00.020Z,74.43
2022-07-30T07:06:00.001Z,74.43
2022-07-30T07:07:00.194Z,74.10
2022-07-30T07:08:00.993Z,73.80
2022-07-30T07:08:59.971Z,73.39
2022-07-30T07:09:59.975Z,72.86
2022-07-30T07:10:59.960Z,72.76
2022-07-30T07:11:59.948Z,72.72
2022-07-30T07:12:59.980Z,72.13
2022-07-30T07:14:04.360Z,72.13
2022-07-30T07:15:00.926Z,71.89
2022-07-30T07:15:59.924Z,72.13
2022-07-30T07:17:00.038Z,72.42
2022-07-30T07:17:59.904Z,72.42
2022-07-30T07:18:59.902Z,72.33
2022-07-30T07:20:02.289Z,72.92
2022-07-30T07:20:59.883Z,72.83
2022-07-30T07:21:59.868Z,73.13
2022-07-30T07:22:59.854Z,73.19
2022-07-30T07:24:00.863Z,71.16
2022-07-30T07:24:59.845Z,70.23
2022-07-30T07:25:59.844Z,69.43
2022-07-30T07:26:59.993Z,69.26
2022-07-30T07:28:11.044Z,67.93
2022-07-30T07:29:05.003Z,67.30
2022-07-30T07:30:04.919Z,66.37
2022-07-30T07:31:00.841Z,66.14
2022-07-30T07:32:05.759Z,65.54
2022-07-30T07:33:00.777Z,64.94
2022-07-30T07:33:59.778Z,65.74
2022-07-30T07:34:59.771Z,65.11
2022-07-30T07:35:59.752Z,65.41
2022-07-30T07:36:59.997Z,64.42
2022-07-30T07:37:59.752Z,65.21
2022-07-30T07:38:59.736Z,66.04
2022-07-30T07:39:59.771Z,65.54
2022-07-30T07:40:59.715Z,65.54
2022-07-30T07:41:59.707Z,66.24
2022-07-30T07:42:59.701Z,65.61
2022-07-30T07:43:59.698Z,64.91
2022-07-30T07:44:59.696Z,65.11
2022-07-30T07:45:59.721Z,64.72
2022-07-30T07:47:00.111Z,64.48
2022-07-30T07:47:59.666Z,64.18
2022-07-30T07:48:59.720Z,64.15
2022-07-30T07:50:00.178Z,64.25
2022-07-30T07:51:00.529Z,63.92
2022-07-30T07:52:00.626Z,63.85
2022-07-30T07:52:59.621Z,64.15
2022-07-30T07:54:19.034Z,64.06
2022-07-30T07:55:02.183Z,64.06
2022-07-30T07:55:59.631Z,63.82
2022-07-30T07:57:01.474Z,63.92
2022-07-30T07:57:59.603Z,63.23
2022-07-30T07:58:59.589Z,63.82
2022-07-30T07:59:59.550Z,63.82
2022-07-30T08:00:59.575Z,63.82
2022-07-30T08:01:59.577Z,63.73
2022-07-30T08:02:59.532Z,63.92
2022-07-30T08:03:59.532Z,63.89
2022-07-30T08:04:59.546Z,65.11
2022-07-30T08:06:06.157Z,66.53
2022-07-30T08:07:00.726Z,65.64
2022-07-30T08:07:59.477Z,67.36
2022-07-30T08:09:00.485Z,67.80
2022-07-30T08:09:59.480Z,68.19
2022-07-30T08:11:00.088Z,67.60
2022-07-30T08:12:00.100Z,67.60
2022-07-30T08:12:59.447Z,68.26
2022-07-30T08:13:59.440Z,68.07
2022-07-30T08:14:59.439Z,67.70
2022-07-30T08:15:59.458Z,67.90
2022-07-30T08:16:59.499Z,68.00
2022-07-30T08:17:59.414Z,68.73
2022-07-30T08:18:59.407Z,69.26
2022-07-30T08:19:59.403Z,70.72
2022-07-30T08:20:59.393Z,72.49
2022-07-30T08:21:59.381Z,72.69
2022-07-30T08:22:59.370Z,73.99
2022-07-30T08:23:59.370Z,73.99
2022-07-30T08:24:59.371Z,74.09
2022-07-30T08:25:59.349Z,74.29
2022-07-30T08:27:00.532Z,74.63
2022-07-30T08:27:59.338Z,75.63
2022-07-30T08:28:59.337Z,75.63
2022-07-30T08:29:59.328Z,74.89
2022-07-30T08:31:02.184Z,74.79
2022-07-30T08:31:59.646Z,74.79
2022-07-30T08:32:59.297Z,74.69
2022-07-30T08:33:59.292Z,74.69
2022-07-30T08:34:59.275Z,74.66
2022-07-30T08:36:09.188Z,73.46
2022-07-30T08:37:01.265Z,73.62
2022-07-30T08:37:59.258Z,74.12
2022-07-30T08:38:59.251Z,73.42
2022-07-30T08:39:59.238Z,73.42
2022-07-30T08:40:59.239Z,72.89
2022-07-30T08:41:59.491Z,73.09
2022-07-30T08:42:59.223Z,72.35
2022-07-30T08:43:59.201Z,71.86
2022-07-30T08:44:59.203Z,71.62
2022-07-30T08:45:59.190Z,71.02
2022-07-30T08:46:59.695Z,71.09
2022-07-30T08:47:59.170Z,70.49
2022-07-30T08:49:00.593Z,70.06
2022-07-30T08:50:00.193Z,70.06
2022-07-30T08:50:59.146Z,69.86
2022-07-30T08:51:59.310Z,69.56
2022-07-30T08:52:59.153Z,69.39
2022-07-30T08:53:59.133Z,69.29
2022-07-30T08:54:59.113Z,68.79
2022-07-30T08:55:59.116Z,69.16
2022-07-30T08:56:59.099Z,68.76
2022-07-30T08:57:59.103Z,67.83
2022-07-30T08:58:59.089Z,66.81
2022-07-30T09:00:01.257Z,65.81
2022-07-30T09:00:59.074Z,65.61
2022-07-30T09:01:59.443Z,65.09
2022-07-30T09:02:59.092Z,65.48
2022-07-30T09:03:59.072Z,64.59
2022-07-30T09:04:59.048Z,64.39
2022-07-30T09:05:59.024Z,64.00
2022-07-30T09:06:59.360Z,63.86
2022-07-30T09:07:59.012Z,64.16
2022-07-30T09:08:59.011Z,64.26
2022-07-30T09:09:58.998Z,63.70
2022-07-30T09:10:59.027Z,63.96
2022-07-30T09:11:58.981Z,63.93
2022-07-30T09:12:59.009Z,63.64
2022-07-30T09:13:58.977Z,63.86
2022-07-30T09:14:58.955Z,64.03
2022-07-30T09:15:58.954Z,64.36
2022-07-30T09:16:59.173Z,63.24
2022-07-30T09:17:58.932Z,61.91
2022-07-30T09:18:58.937Z,62.05
2022-07-30T09:19:58.916Z,61.53
2022-07-30T09:20:58.907Z,61.86
2022-07-30T09:21:58.898Z,62.41
2022-07-30T09:22:58.895Z,61.91
2022-07-30T09:23:58.894Z,62.21
2022-07-30T09:24:58.872Z,63.34
2022-07-30T09:25:58.869Z,63.73
2022-07-30T09:26:58.985Z,62.71
2022-07-30T09:27:58.854Z,63.43
2022-07-30T09:28:58.842Z,64.36
2022-07-30T09:29:58.837Z,65.58
2022-07-30T09:30:58.824Z,65.39
2022-07-30T09:31:59.282Z,64.00
2022-07-30T09:32:58.809Z,63.96
2022-07-30T09:33:58.814Z,64.00
2022-07-30T09:34:58.798Z,63.79
2022-07-30T09:35:58.795Z,64.82
2022-07-30T09:36:58.780Z,65.12
2022-07-30T09:38:02.950Z,65.02
2022-07-30T09:38:59.759Z,64.39
2022-07-30T09:39:59.186Z,63.86
2022-07-30T09:41:00.127Z,63.04
2022-07-30T09:42:00.186Z,62.05
2022-07-30T09:42:58.733Z,62.21
2022-07-30T09:43:58.720Z,62.34
2022-07-30T09:44:59.688Z,62.45
2022-07-30T09:45:58.705Z,63.13
2022-07-30T09:46:58.701Z,62.54
2022-07-30T09:47:58.698Z,61.85
2022-07-30T09:48:58.725Z,62.12
2022-07-30T09:50:01.723Z,61.52
2022-07-30T09:50:59.669Z,62.02
2022-07-30T09:51:58.658Z,62.37
2022-07-30T09:52:58.652Z,63.89
2022-07-30T09:53:58.644Z,63.79
2022-07-30T09:54:58.641Z,63.89
2022-07-30T09:55:58.635Z,64.29
2022-07-30T09:56:58.621Z,64.00
2022-07-30T09:57:58.698Z,64.29
2022-07-30T09:58:58.603Z,63.89
2022-07-30T09:59:59.843Z,64.39
2022-07-30T10:00:58.597Z,64.56
2022-07-30T10:02:00.922Z,62.94
2022-07-30T10:02:58.570Z,60.33
2022-07-30T10:03:58.549Z,59.83
2022-07-30T10:04:59.556Z,59.83
2022-07-30T10:05:58.550Z,59.01
2022-07-30T10:06:58.560Z,58.54
2022-07-30T10:07:58.528Z,57.75
2022-07-30T10:08:58.521Z,57.65
2022-07-30T10:09:58.512Z,56.95
2022-07-30T10:10:58.504Z,57.82
2022-07-30T10:11:59.868Z,56.93
2022-07-30T10:14:05.253Z,56.40
2022-07-30T10:15:06.272Z,54.89
2022-07-30T10:16:05.244Z,55.58
2022-07-30T10:17:06.330Z,54.89
2022-07-30T10:18:06.680Z,54.92
2022-07-30T10:19:07.143Z,55.11
2022-07-30T10:20:08.270Z,56.80
2022-07-30T10:21:06.289Z,56.77
2022-07-30T10:22:06.284Z,56.90
2022-07-30T10:23:08.798Z,58.02
2022-07-30T10:24:06.763Z,57.82
2022-07-30T10:25:07.254Z,57.03
2022-07-30T10:26:06.247Z,56.53
2022-07-30T10:27:06.582Z,56.46
2022-07-30T10:28:06.242Z,57.06
2022-07-30T10:29:06.232Z,56.66
2022-07-30T10:30:06.299Z,56.13
2022-07-30T10:31:08.273Z,56.04
2022-07-30T10:32:06.219Z,55.07
2022-07-30T10:33:06.206Z,55.36
2022-07-30T10:34:06.182Z,56.46
2022-07-30T10:35:06.177Z,54.90
2022-07-30T10:36:06.172Z,55.52
2022-07-30T10:37:06.561Z,55.74
2022-07-30T10:38:06.162Z,56.54
2022-07-30T10:39:06.152Z,56.57
2022-07-30T10:40:06.150Z,56.34
2022-07-30T10:41:06.140Z,56.04
2022-07-30T10:42:06.124Z,55.82
2022-07-30T10:43:06.121Z,54.93
2022-07-30T10:44:06.116Z,55.00
2022-07-30T10:45:06.724Z,54.08
2022-07-30T10:46:07.450Z,54.38
2022-07-30T10:47:07.346Z,53.88
2022-07-30T10:48:06.083Z,53.75
2022-07-30T10:49:06.097Z,53.56
2022-07-30T10:50:07.070Z,52.84
2022-07-30T10:51:06.092Z,52.79
2022-07-30T10:52:06.051Z,52.76
2022-07-30T10:53:06.041Z,52.89
2022-07-30T10:54:06.042Z,52.91
2022-07-30T10:55:07.026Z,53.80
2022-07-30T10:56:06.019Z,53.80
2022-07-30T10:57:06.009Z,54.00
2022-07-30T10:58:06.118Z,53.78
2022-07-30T10:59:07.706Z,52.56
2022-07-30T11:00:05.990Z,52.34
2022-07-30T11:01:05.979Z,52.14
2022-07-30T11:02:07.533Z,52.54
2022-07-30T11:03:14.074Z,52.34
2022-07-30T11:04:06.970Z,52.41
2022-07-30T11:05:06.644Z,52.22
2022-07-30T11:06:05.942Z,52.59
2022-07-30T11:07:05.935Z,51.62
2022-07-30T11:08:05.929Z,52.34
2022-07-30T11:09:05.930Z,52.59
2022-07-30T11:10:09.654Z,52.59
2022-07-30T11:11:19.315Z,52.61
2022-07-30T11:12:06.903Z,53.11
2022-07-30T11:13:05.899Z,53.11
2022-07-30T11:14:05.882Z,54.13
2022-07-30T11:15:06.620Z,54.33
2022-07-30T11:16:07.505Z,54.33
2022-07-30T11:17:05.929Z,54.03
2022-07-30T11:18:12.143Z,54.43
2022-07-30T11:20:11.818Z,54.33
2022-07-30T11:21:06.070Z,54.43
2022-07-30T11:22:06.663Z,53.70
2022-07-30T11:23:05.819Z,53.78
2022-07-30T11:24:05.816Z,54.40
2022-07-30T11:25:13.020Z,53.98
2022-07-30T11:26:07.795Z,53.56
2022-07-30T11:27:06.786Z,52.66
2022-07-30T11:28:05.783Z,51.94
2022-07-30T11:29:05.773Z,52.54
2022-07-30T11:30:05.782Z,52.64
2022-07-30T11:31:10.346Z,52.64
2022-07-30T11:32:07.003Z,52.96
2022-07-30T11:33:06.746Z,52.66
2022-07-30T11:34:05.727Z,53.88
2022-07-30T11:35:06.237Z,54.38
2022-07-30T11:36:05.717Z,54.23
2022-07-30T11:37:18.073Z,54.63
2022-07-30T11:38:06.952Z,55.22
2022-07-30T11:39:07.499Z,54.21
2022-07-30T11:40:06.726Z,54.47
2022-07-30T11:41:05.672Z,53.66
2022-07-30T11:42:05.676Z,53.45
2022-07-30T11:43:05.675Z,52.14
2022-07-30T11:44:05.655Z,51.05
2022-07-30T11:45:05.656Z,51.32
2022-07-30T11:46:05.631Z,50.83
2022-07-30T11:47:05.638Z,51.23
2022-07-30T11:48:05.619Z,50.53
2022-07-30T11:49:05.763Z,51.15
2022-07-30T11:50:05.609Z,51.35
2022-07-30T11:51:05.598Z,50.83
2022-07-30T11:52:05.596Z,50.93
2022-07-30T11:53:05.588Z,50.93
2022-07-30T11:54:05.577Z,50.81
2022-07-30T11:55:05.646Z,50.68
2022-07-30T11:56:05.559Z,51.00
2022-07-30T11:57:05.551Z,50.29
2022-07-30T11:58:05.548Z,50.38
2022-07-30T11:59:06.169Z,49.89
2022-07-30T12:00:05.530Z,50.56
2022-07-30T12:01:09.481Z,49.37
2022-07-30T12:02:05.871Z,49.54
2022-07-30T12:03:05.506Z,50.24
2022-07-30T12:04:05.542Z,50.16
2022-07-30T12:05:05.490Z,49.94
2022-07-30T12:06:05.481Z,50.56
2022-07-30T12:07:05.586Z,49.57
2022-07-30T12:08:05.469Z,50.38
2022-07-30T12:09:05.474Z,49.69
2022-07-30T12:10:05.464Z,50.34
2022-07-30T12:11:05.443Z,50.63
2022-07-30T12:12:06.270Z,51.84
2022-07-30T12:13:05.428Z,51.97
2022-07-30T12:14:05.426Z,52.56
2022-07-30T12:15:05.421Z,52.72
2022-07-30T12:16:05.405Z,53.83
2022-07-30T12:17:05.788Z,54.06
2022-07-30T12:18:25.298Z,55.08
2022-07-30T12:19:09.554Z,55.57
2022-07-30T12:20:07.169Z,54.97
2022-07-30T12:21:06.249Z,55.18
2022-07-30T12:22:05.419Z,55.60
2022-07-30T12:23:05.352Z,55.47
2022-07-30T12:24:05.351Z,54.95
2022-07-30T12:25:05.343Z,55.42
2022-07-30T12:26:05.330Z,54.00
2022-07-30T12:27:05.743Z,52.69
2022-07-30T12:28:06.175Z,52.69
2022-07-30T12:29:05.311Z,52.66
2022-07-30T12:30:05.325Z,51.54
2022-07-30T12:31:05.292Z,50.85
2022-07-30T12:32:05.301Z,50.63
2022-07-30T12:33:05.280Z,50.53
2022-07-30T12:34:05.275Z,50.21
2022-07-30T12:35:05.277Z,49.00
2022-07-30T12:36:05.269Z,49.84
2022-07-30T12:37:05.357Z,50.56
2022-07-30T12:38:05.249Z,50.76
2022-07-30T12:39:05.239Z,50.65
2022-07-30T12:40:05.232Z,50.46
2022-07-30T12:41:05.245Z,50.34
2022-07-30T12:42:05.209Z,50.43
2022-07-30T12:43:05.217Z,50.95
2022-07-30T12:44:06.198Z,50.85
2022-07-30T12:45:05.186Z,50.36
2022-07-30T12:46:05.176Z,51.25
2022-07-30T12:47:05.826Z,52.49
2022-07-30T12:48:05.166Z,52.69
2022-07-30T12:49:21.411Z,52.94
2022-07-30T12:50:06.200Z,53.83
2022-07-30T12:51:05.139Z,54.23
2022-07-30T12:52:05.136Z,55.74
2022-07-30T12:53:05.119Z,57.19
2022-07-30T12:54:05.117Z,59.23
2022-07-30T12:55:05.112Z,61.25